createdAt,value
2018-08-18T00:02:25.657Z,52.37
2018-08-18T00:04:51.623Z,51.82
2018-08-18T00:07:17.699Z,52.72
2018-08-18T00:09:43.650Z,52.95
2018-08-18T00:12:09.677Z,52.82
2018-08-18T00:14:35.637Z,52.15
2018-08-18T00:17:01.605Z,51.87
2018-08-18T00:19:27.564Z,52.83
2018-08-18T00:21:53.521Z,52.11
2018-08-18T00:24:19.492Z,52.83
2018-08-18T00:26:45.479Z,51.98
2018-08-18T00:29:11.439Z,52.79
2018-08-18T00:31:37.408Z,52.01
2018-08-18T00:34:03.362Z,51.89
2018-08-18T00:36:29.340Z,51.81
2018-08-18T00:38:55.350Z,51.85
2018-08-18T00:41:21.375Z,52.75
2018-08-18T00:43:47.349Z,52.65
2018-08-18T00:46:13.339Z,52.57
2018-08-18T00:48:39.327Z,52.37
2018-08-18T00:51:05.299Z,51.79
2018-08-18T00:53:31.969Z,52.52
2018-08-18T00:55:57.914Z,52.02
2018-08-18T00:58:23.887Z,51.85
2018-08-18T01:00:49.885Z,51.75
2018-08-18T01:03:15.849Z,52.53
2018-08-18T01:05:41.803Z,51.92
2018-08-18T01:08:07.846Z,52.12
2018-08-18T01:10:33.783Z,52.66
2018-08-18T01:12:59.852Z,51.68
2018-08-18T01:15:25.752Z,51.94
2018-08-18T01:17:51.740Z,52.25
2018-08-18T01:20:17.696Z,52.36
2018-08-18T01:22:43.675Z,52.13
2018-08-18T01:25:09.619Z,52.08
2018-08-18T01:27:35.597Z,52.56
2018-08-18T01:30:01.567Z,52.21
2018-08-18T01:32:27.512Z,52.06
2018-08-18T01:34:53.476Z,52.47
2018-08-18T01:37:19.452Z,52.31
2018-08-18T01:39:45.431Z,52.28
2018-08-18T01:42:11.442Z,51.39
2018-08-18T01:44:37.448Z,51.73
2018-08-18T01:47:03.548Z,51.60
2018-08-18T01:49:29.490Z,52.32
2018-08-18T01:51:55.458Z,51.58
2018-08-18T01:54:21.427Z,52.44
2018-08-18T01:56:47.379Z,52.07
2018-08-18T01:59:13.342Z,51.91
2018-08-18T02:01:39.379Z,52.24
2018-08-18T02:04:05.348Z,52.26
2018-08-18T02:06:31.330Z,52.43
2018-08-18T02:08:57.289Z,51.61
2018-08-18T02:11:23.276Z,52.27
2018-08-18T02:13:49.206Z,52.41
2018-08-18T02:16:15.202Z,52.05
2018-08-18T02:18:41.196Z,52.08
2018-08-18T02:21:07.155Z,51.77
2018-08-18T02:23:33.128Z,52.28
2018-08-18T02:25:59.090Z,52.40
2018-08-18T02:28:25.047Z,51.75
2018-08-18T02:30:51.080Z,52.45
2018-08-18T02:33:17.046Z,51.56
2018-08-18T02:35:43.057Z,52.31
2018-08-18T02:38:09.062Z,52.20
2018-08-18T02:40:35.005Z,52.09
2018-08-18T02:43:00.975Z,51.28
2018-08-18T02:45:26.930Z,51.01
2018-08-18T02:47:52.927Z,51.55
2018-08-18T02:50:18.899Z,52.15
2018-08-18T02:52:44.865Z,52.12
2018-08-18T02:55:10.819Z,52.16
2018-08-18T02:57:36.776Z,51.38
2018-08-18T03:00:02.780Z,51.32
2018-08-18T03:02:28.742Z,51.94
2018-08-18T03:04:54.724Z,50.76
2018-08-18T03:07:20.700Z,51.09
2018-08-18T03:09:46.724Z,52.05
2018-08-18T03:12:12.732Z,52.18
2018-08-18T03:14:38.689Z,51.76
2018-08-18T03:17:04.742Z,51.68
2018-08-18T03:19:30.720Z,51.23
2018-08-18T03:21:56.684Z,52.28
2018-08-18T03:24:22.656Z,51.58
2018-08-18T03:26:48.702Z,51.47
2018-08-18T03:29:14.754Z,52.05
2018-08-18T03:31:40.635Z,52.13
2018-08-18T03:34:06.605Z,51.82
2018-08-18T03:36:32.564Z,51.82
2018-08-18T03:38:58.547Z,51.81
2018-08-18T03:41:24.508Z,51.25
2018-08-18T03:43:50.479Z,51.63
2018-08-18T03:46:16.448Z,52.32
2018-08-18T03:48:42.421Z,51.67
2018-08-18T03:51:08.401Z,51.68
2018-08-18T03:53:34.386Z,51.86
2018-08-18T03:56:00.471Z,52.77
2018-08-18T03:58:26.466Z,52.27
2018-08-18T04:00:52.430Z,51.89
2018-08-18T04:03:18.418Z,51.62
2018-08-18T04:05:44.378Z,52.06
2018-08-18T04:08:10.341Z,52.82
2018-08-18T04:10:36.301Z,52.00
2018-08-18T04:13:02.271Z,51.99
2018-08-18T04:15:28.221Z,52.18
2018-08-18T04:17:54.186Z,52.67
2018-08-18T04:20:20.137Z,52.36
2018-08-18T04:22:46.099Z,52.76
2018-08-18T04:25:12.172Z,52.83
2018-08-18T04:27:38.092Z,52.41
2018-08-18T04:30:04.072Z,53.02
2018-08-18T04:32:30.047Z,53.09
2018-08-18T04:34:55.992Z,52.89
2018-08-18T04:37:21.960Z,52.34
2018-08-18T04:39:47.989Z,52.42
2018-08-18T04:42:13.974Z,52.43
2018-08-18T04:44:39.928Z,53.33
2018-08-18T04:47:05.916Z,53.38
2018-08-18T04:49:31.912Z,53.03
2018-08-18T04:51:57.910Z,53.40
2018-08-18T04:54:23.888Z,52.96
2018-08-18T04:56:49.869Z,53.40
2018-08-18T04:59:15.879Z,52.54
2018-08-18T05:01:41.824Z,53.05
2018-08-18T05:04:07.787Z,53.38
2018-08-18T05:06:33.739Z,53.57
2018-08-18T05:08:59.801Z,53.27
2018-08-18T05:11:25.700Z,52.88
2018-08-18T05:13:51.653Z,53.00
2018-08-18T05:16:17.704Z,53.29
2018-08-18T05:18:43.795Z,52.86
2018-08-18T05:21:09.648Z,53.26
2018-08-18T05:23:35.627Z,53.46
2018-08-18T05:26:01.584Z,52.46
2018-08-18T05:28:27.632Z,53.46
2018-08-18T05:30:53.617Z,52.94
2018-08-18T05:33:19.595Z,52.96
2018-08-18T05:35:45.572Z,53.15
2018-08-18T05:38:11.539Z,53.04
2018-08-18T05:40:37.532Z,53.42
2018-08-18T05:43:03.487Z,53.41
2018-08-18T05:45:29.496Z,52.96
2018-08-18T05:47:55.460Z,53.01
2018-08-18T05:50:21.408Z,53.29
2018-08-18T05:52:47.376Z,53.90
2018-08-18T05:55:14.010Z,53.06
2018-08-18T05:57:39.964Z,53.54
2018-08-18T06:00:05.922Z,53.61
2018-08-18T06:02:31.888Z,53.30
2018-08-18T06:04:57.854Z,53.39
2018-08-18T06:07:23.815Z,54.07
2018-08-18T06:09:49.781Z,54.11
2018-08-18T06:12:15.759Z,53.72
2018-08-18T06:14:41.712Z,53.85
2018-08-18T06:17:07.720Z,53.94
2018-08-18T06:19:33.674Z,54.31
2018-08-18T06:21:59.693Z,53.55
2018-08-18T06:24:25.661Z,53.67
2018-08-18T06:26:51.746Z,53.34
2018-08-18T06:29:17.725Z,54.53
2018-08-18T06:31:43.709Z,54.26
2018-08-18T06:34:09.689Z,54.06
2018-08-18T06:36:35.713Z,54.09
2018-08-18T06:39:01.668Z,53.91
2018-08-18T06:41:27.774Z,53.44
2018-08-18T06:43:53.605Z,53.65
2018-08-18T06:46:19.576Z,53.80
2018-08-18T06:48:45.544Z,54.20
2018-08-18T06:51:11.518Z,53.96
2018-08-18T06:53:37.483Z,53.98
2018-08-18T06:56:03.436Z,53.04
2018-08-18T06:58:29.407Z,54.20
2018-08-18T07:00:55.392Z,54.40
2018-08-18T07:03:21.465Z,53.42
2018-08-18T07:05:47.429Z,54.38
2018-08-18T07:08:13.383Z,53.85
2018-08-18T07:10:40.289Z,53.27
2018-08-18T07:13:06.263Z,53.08
2018-08-18T07:15:32.238Z,53.26
2018-08-18T07:17:58.244Z,54.64
2018-08-18T07:20:24.280Z,54.41
2018-08-18T07:22:50.254Z,53.70
2018-08-18T07:25:16.225Z,54.38
2018-08-18T07:27:42.251Z,54.21
2018-08-18T07:30:10.250Z,54.33
2018-08-18T07:32:36.264Z,53.93
2018-08-18T07:35:02.293Z,53.53
2018-08-18T07:37:28.343Z,53.86
2018-08-18T07:39:54.287Z,53.37
2018-08-18T07:42:20.377Z,54.22
2018-08-18T07:44:46.356Z,54.26
2018-08-18T07:47:12.301Z,53.88
2018-08-18T07:49:38.290Z,54.08
2018-08-18T07:52:04.259Z,54.16
2018-08-18T07:54:30.316Z,53.25
2018-08-18T07:56:56.282Z,53.99
2018-08-18T07:59:22.259Z,53.65
2018-08-18T08:01:48.217Z,53.42
2018-08-18T08:04:14.211Z,53.87
2018-08-18T08:06:40.201Z,53.70
2018-08-18T08:09:06.207Z,53.14
2018-08-18T08:11:32.274Z,54.19
2018-08-18T08:13:58.256Z,53.69
2018-08-18T08:16:24.217Z,53.24
2018-08-18T08:18:50.168Z,53.75
2018-08-18T08:21:16.133Z,54.00
2018-08-18T08:23:42.109Z,53.80
2018-08-18T08:26:08.180Z,54.02
2018-08-18T08:28:34.151Z,53.64
2018-08-18T08:31:00.168Z,53.96
2018-08-18T08:33:26.162Z,53.51
2018-08-18T08:35:52.132Z,53.21
2018-08-18T08:38:18.139Z,53.52
2018-08-18T08:40:44.098Z,53.73
2018-08-18T08:43:10.102Z,53.72
2018-08-18T08:45:36.077Z,53.41
2018-08-18T08:48:02.057Z,53.20
2018-08-18T08:50:28.053Z,53.61
2018-08-18T08:52:54.029Z,54.17
2018-08-18T08:55:20.026Z,54.33
2018-08-18T08:57:46.053Z,54.29
2018-08-18T09:00:12.025Z,53.60
2018-08-18T09:02:38.074Z,53.28
2018-08-18T09:05:04.071Z,53.64
2018-08-18T09:07:30.085Z,53.51
2018-08-18T09:09:56.103Z,53.81
2018-08-18T09:12:22.151Z,54.72
2018-08-18T09:14:48.124Z,54.51
2018-08-18T09:17:14.142Z,54.41
2018-08-18T09:19:40.108Z,54.73
2018-08-18T09:22:06.093Z,53.52
2018-08-18T09:24:32.064Z,54.25
2018-08-18T09:26:58.044Z,53.38
2018-08-18T09:29:24.027Z,53.29
2018-08-18T09:31:50.028Z,54.29
2018-08-18T09:34:16.042Z,53.94
2018-08-18T09:36:42.017Z,54.61
2018-08-18T09:39:08.006Z,54.63
2018-08-18T09:41:33.979Z,54.53
2018-08-18T09:43:59.948Z,53.48
2018-08-18T09:46:25.999Z,54.22
2018-08-18T09:48:51.942Z,53.47
2018-08-18T09:51:17.959Z,54.14
2018-08-18T09:53:43.932Z,53.32
2018-08-18T09:56:09.967Z,52.91
2018-08-18T09:58:36.013Z,53.83
2018-08-18T10:01:02.137Z,53.88
2018-08-18T10:03:28.156Z,53.71
2018-08-18T10:05:54.161Z,53.64
2018-08-18T10:08:20.170Z,53.52
2018-08-18T10:10:46.235Z,53.46
2018-08-18T10:13:12.263Z,54.09
2018-08-18T10:15:38.237Z,54.52
2018-08-18T10:18:04.241Z,54.10
2018-08-18T10:20:30.552Z,52.86
2018-08-18T10:22:56.548Z,52.73
2018-08-18T10:25:22.550Z,54.24
2018-08-18T10:27:48.537Z,54.45
2018-08-18T10:30:14.580Z,53.77
2018-08-18T10:32:40.564Z,53.37
2018-08-18T10:35:06.536Z,54.15
2018-08-18T10:37:32.591Z,53.74
2018-08-18T10:39:58.561Z,54.20
2018-08-18T10:42:24.561Z,53.61
2018-08-18T10:44:50.647Z,54.27
2018-08-18T10:47:16.758Z,53.71
2018-08-18T10:49:43.010Z,54.32
2018-08-18T10:52:08.993Z,54.37
2018-08-18T10:54:34.977Z,53.72
2018-08-18T10:57:00.957Z,53.32
2018-08-18T10:59:27.031Z,54.38
2018-08-18T11:01:52.996Z,53.02
2018-08-18T11:04:19.067Z,53.62
2018-08-18T11:06:45.074Z,53.94
2018-08-18T11:09:11.066Z,53.30
2018-08-18T11:11:37.074Z,53.54
2018-08-18T11:14:03.302Z,53.87
2018-08-18T11:16:29.311Z,53.64
2018-08-18T11:18:55.310Z,54.34
2018-08-18T11:21:21.328Z,54.11
2018-08-18T11:23:47.416Z,54.36
2018-08-18T11:26:13.397Z,53.83
2018-08-18T11:28:39.552Z,53.86
2018-08-18T11:31:05.442Z,53.96
2018-08-18T11:33:31.428Z,54.34
2018-08-18T11:35:57.422Z,54.54
2018-08-18T11:38:23.409Z,54.24
2018-08-18T11:40:49.407Z,54.46
2018-08-18T11:43:15.496Z,54.42
2018-08-18T11:45:41.547Z,53.63
2018-08-18T11:48:07.600Z,53.10
2018-08-18T11:50:33.634Z,53.44
2018-08-18T11:52:59.612Z,53.22
2018-08-18T11:55:25.692Z,54.28
2018-08-18T11:57:51.705Z,53.35
2018-08-18T12:00:17.711Z,53.41
2018-08-18T12:02:43.796Z,54.16
2018-08-18T12:05:09.823Z,53.67
2018-08-18T12:07:35.934Z,53.93
2018-08-18T12:10:01.975Z,54.54
2018-08-18T12:12:27.941Z,53.55
2018-08-18T12:14:53.936Z,53.51
2018-08-18T12:17:19.911Z,53.60
2018-08-18T12:19:45.912Z,53.46
2018-08-18T12:22:11.908Z,53.62
2018-08-18T12:24:37.913Z,54.33
2018-08-18T12:27:04.177Z,54.01
2018-08-18T12:29:30.181Z,53.85
2018-08-18T12:31:56.176Z,53.74
2018-08-18T12:34:22.160Z,54.46
2018-08-18T12:36:48.186Z,54.44
2018-08-18T12:39:14.158Z,54.11
2018-08-18T12:41:40.162Z,54.19
2018-08-18T12:44:06.158Z,54.61
2018-08-18T12:46:32.137Z,53.86
2018-08-18T12:48:58.136Z,53.80
2018-08-18T12:51:24.127Z,54.86
2018-08-18T12:53:50.142Z,54.62
2018-08-18T12:56:16.219Z,54.04
2018-08-18T12:58:42.369Z,54.14
2018-08-18T13:01:08.212Z,54.10
2018-08-18T13:03:34.235Z,53.80
2018-08-18T13:06:00.227Z,54.20
2018-08-18T13:08:26.208Z,54.49
2018-08-18T13:10:52.170Z,53.82
2018-08-18T13:13:18.166Z,53.82
2018-08-18T13:15:44.138Z,53.95
2018-08-18T13:18:10.120Z,53.36
2018-08-18T13:20:36.209Z,54.88
2018-08-18T13:23:02.160Z,54.01
2018-08-18T13:25:28.125Z,54.94
2018-08-18T13:27:54.117Z,54.94
2018-08-18T13:30:21.152Z,54.58
2018-08-18T13:32:47.134Z,54.97
2018-08-18T13:35:13.302Z,55.16
2018-08-18T13:37:39.323Z,54.13
2018-08-18T13:40:05.416Z,54.76
2018-08-18T13:42:31.440Z,54.38
2018-08-18T13:44:57.400Z,54.56
2018-08-18T13:47:23.413Z,54.54
2018-08-18T13:49:49.406Z,54.75
2018-08-18T13:52:15.416Z,54.37
2018-08-18T13:54:41.423Z,55.06
2018-08-18T13:57:07.473Z,54.22
2018-08-18T13:59:33.506Z,55.12
2018-08-18T14:01:59.521Z,54.87
2018-08-18T14:04:25.526Z,55.11
2018-08-18T14:06:51.785Z,54.61
2018-08-18T14:09:17.796Z,55.18
2018-08-18T14:11:43.798Z,55.06
2018-08-18T14:14:09.805Z,54.98
2018-08-18T14:16:35.880Z,54.66
2018-08-18T14:19:01.872Z,54.94
2018-08-18T14:21:27.876Z,54.54
2018-08-18T14:23:53.886Z,54.90
2018-08-18T14:26:19.853Z,53.87
2018-08-18T14:28:45.867Z,54.12
2018-08-18T14:31:11.888Z,54.51
2018-08-18T14:33:38.219Z,54.32
2018-08-18T14:36:04.217Z,54.26
2018-08-18T14:38:30.188Z,55.09
2018-08-18T14:40:56.197Z,54.69
2018-08-18T14:43:22.160Z,55.28
2018-08-18T14:45:48.243Z,54.72
2018-08-18T14:48:14.148Z,54.40
2018-08-18T14:50:40.144Z,55.73
2018-08-18T14:53:06.174Z,54.35
2018-08-18T14:55:32.196Z,55.38
2018-08-18T14:57:58.187Z,55.67
2018-08-18T15:00:24.163Z,54.55
2018-08-18T15:02:50.141Z,54.40
2018-08-18T15:05:16.119Z,54.17
2018-08-18T15:07:42.107Z,53.63
2018-08-18T15:10:08.071Z,54.67
2018-08-18T15:12:34.275Z,53.72
2018-08-18T15:15:00.344Z,54.35
2018-08-18T15:17:26.425Z,55.20
2018-08-18T15:19:52.473Z,55.02
2018-08-18T15:22:18.448Z,55.58
2018-08-18T15:24:44.543Z,54.73
2018-08-18T15:27:10.526Z,53.89
2018-08-18T15:29:36.499Z,54.09
2018-08-18T15:32:02.507Z,53.77
2018-08-18T15:34:28.491Z,54.62
2018-08-18T15:36:54.519Z,54.45
2018-08-18T15:39:21.309Z,54.66
2018-08-18T15:41:47.448Z,54.98
2018-08-18T15:44:13.433Z,54.22
2018-08-18T15:46:39.417Z,54.84
2018-08-18T15:49:05.470Z,54.91
2018-08-18T15:51:31.430Z,54.77
2018-08-18T15:53:57.400Z,54.42
2018-08-18T15:56:23.421Z,54.62
2018-08-18T15:58:49.409Z,53.92
2018-08-18T16:01:15.401Z,54.10
2018-08-18T16:03:41.389Z,54.60
2018-08-18T16:06:07.413Z,54.86
2018-08-18T16:08:33.409Z,54.80
2018-08-18T16:10:59.393Z,55.28
2018-08-18T16:13:25.377Z,54.65
2018-08-18T16:15:51.426Z,55.26
2018-08-18T16:18:17.377Z,55.12
2018-08-18T16:20:43.357Z,54.55
2018-08-18T16:23:09.340Z,54.54
2018-08-18T16:25:35.327Z,54.75
2018-08-18T16:28:01.378Z,53.53
2018-08-18T16:30:27.352Z,54.41
2018-08-18T16:32:53.327Z,54.38
2018-08-18T16:35:19.289Z,54.82
2018-08-18T16:37:45.237Z,53.84
2018-08-18T16:40:11.229Z,54.50
2018-08-18T16:42:37.237Z,54.19
2018-08-18T16:45:03.196Z,54.62
2018-08-18T16:47:29.159Z,54.71
2018-08-18T16:49:55.170Z,54.89
2018-08-18T16:52:21.217Z,54.85
2018-08-18T16:54:47.200Z,54.76
2018-08-18T16:57:13.220Z,54.86
2018-08-18T16:59:39.210Z,54.39
2018-08-18T17:02:05.225Z,54.03
2018-08-18T17:04:31.212Z,54.53
2018-08-18T17:06:57.214Z,54.05
2018-08-18T17:09:23.175Z,53.32
2018-08-18T17:11:49.195Z,54.70
2018-08-18T17:14:15.186Z,53.28
2018-08-18T17:16:41.315Z,53.67
2018-08-18T17:19:07.222Z,54.17
2018-08-18T17:21:33.193Z,54.77
2018-08-18T17:23:59.189Z,53.23
2018-08-18T17:26:25.232Z,53.95
2018-08-18T17:28:51.224Z,53.59
2018-08-18T17:31:17.223Z,53.81
2018-08-18T17:33:43.232Z,53.58
2018-08-18T17:36:09.200Z,54.19
2018-08-18T17:38:35.203Z,54.34
2018-08-18T17:41:01.279Z,54.13
2018-08-18T17:43:27.242Z,52.61
2018-08-18T17:45:53.202Z,53.86
2018-08-18T17:48:19.188Z,54.39
2018-08-18T17:50:45.186Z,53.96
2018-08-18T17:53:11.160Z,53.92
2018-08-18T17:55:37.146Z,52.63
2018-08-18T17:58:03.137Z,51.20
2018-08-18T18:00:29.116Z,52.10
2018-08-18T18:02:55.108Z,51.10
2018-08-18T18:05:21.119Z,51.42
2018-08-18T18:07:47.068Z,50.46
2018-08-18T18:10:13.054Z,49.90
2018-08-18T18:12:39.132Z,49.08
2018-08-18T18:15:05.106Z,50.54
2018-08-18T18:17:31.079Z,50.32
2018-08-18T18:19:57.042Z,49.44
2018-08-18T18:22:23.016Z,50.61
2018-08-18T18:24:49.004Z,49.97
2018-08-18T18:27:14.981Z,50.10
2018-08-18T18:29:40.965Z,50.87
2018-08-18T18:32:07.033Z,51.11
2018-08-18T18:34:33.002Z,49.12
2018-08-18T18:36:59.141Z,49.50
2018-08-18T18:39:25.123Z,49.76
2018-08-18T18:41:51.096Z,48.89
2018-08-18T18:44:17.079Z,48.60
2018-08-18T18:46:43.065Z,48.43
2018-08-18T18:49:09.036Z,49.39
2018-08-18T18:51:35.040Z,49.64
2018-08-18T18:54:01.254Z,49.46
2018-08-18T18:56:27.247Z,49.32
2018-08-18T18:58:53.200Z,49.31
2018-08-18T19:01:19.286Z,50.02
2018-08-18T19:03:45.150Z,49.01
2018-08-18T19:06:11.151Z,48.80
2018-08-18T19:08:37.158Z,49.09
2018-08-18T19:11:03.204Z,49.03
2018-08-18T19:13:29.164Z,49.32
2018-08-18T19:15:55.320Z,49.91
2018-08-18T19:18:21.260Z,50.32
2018-08-18T19:20:47.278Z,49.98
2018-08-18T19:23:13.300Z,49.59
2018-08-18T19:25:39.365Z,49.20
2018-08-18T19:28:05.403Z,49.78
2018-08-18T19:30:31.384Z,49.17
2018-08-18T19:32:57.402Z,49.96
2018-08-18T19:35:23.465Z,48.93
2018-08-18T19:37:49.477Z,50.46
2018-08-18T19:40:15.461Z,49.91
2018-08-18T19:42:41.551Z,50.39
2018-08-18T19:45:07.507Z,49.60
2018-08-18T19:47:33.524Z,50.04
2018-08-18T19:49:59.561Z,50.54
2018-08-18T19:52:25.573Z,50.81
2018-08-18T19:54:51.567Z,50.25
2018-08-18T19:57:17.617Z,50.99
2018-08-18T19:59:43.705Z,52.44
2018-08-18T20:02:09.688Z,49.99
2018-08-18T20:04:35.643Z,50.56
2018-08-18T20:07:01.666Z,50.72
2018-08-18T20:09:27.623Z,50.44
2018-08-18T20:11:53.618Z,51.23
2018-08-18T20:14:19.637Z,51.01
2018-08-18T20:16:45.613Z,50.42
2018-08-18T20:19:11.594Z,50.20
2018-08-18T20:21:37.692Z,50.25
2018-08-18T20:24:03.752Z,50.71
2018-08-18T20:26:29.730Z,50.77
2018-08-18T20:28:55.725Z,51.59
2018-08-18T20:31:21.704Z,50.45
2018-08-18T20:33:47.705Z,50.70
2018-08-18T20:36:13.700Z,51.80
2018-08-18T20:38:39.682Z,51.26
2018-08-18T20:41:05.825Z,51.53
2018-08-18T20:43:31.798Z,51.01
2018-08-18T20:45:57.800Z,51.37
2018-08-18T20:48:23.806Z,51.12
2018-08-18T20:50:49.784Z,50.84
2018-08-18T20:53:15.776Z,51.48
2018-08-18T20:55:41.736Z,51.47
2018-08-18T20:58:07.758Z,50.76
2018-08-18T21:00:33.749Z,50.35
2018-08-18T21:02:59.741Z,50.23
2018-08-18T21:05:25.746Z,50.22
2018-08-18T21:07:51.768Z,50.79
2018-08-18T21:10:17.746Z,50.14
2018-08-18T21:12:43.758Z,50.64
2018-08-18T21:15:09.902Z,51.74
2018-08-18T21:17:35.920Z,51.46
2018-08-18T21:20:01.892Z,52.11
2018-08-18T21:22:27.980Z,52.19
2018-08-18T21:24:54.023Z,52.31
2018-08-18T21:27:20.027Z,51.02
2018-08-18T21:29:46.032Z,50.86
2018-08-18T21:32:12.058Z,51.87
2018-08-18T21:34:38.100Z,50.99
2018-08-18T21:37:04.050Z,51.56
2018-08-18T21:39:30.071Z,50.78
2018-08-18T21:41:56.051Z,50.88
2018-08-18T21:44:22.105Z,51.80
2018-08-18T21:46:48.092Z,51.11
2018-08-18T21:49:14.106Z,50.95
2018-08-18T21:51:40.116Z,51.02
2018-08-18T21:54:06.079Z,51.39
2018-08-18T21:56:32.109Z,51.16
2018-08-18T21:58:58.179Z,52.40
2018-08-18T22:01:24.147Z,51.25
2018-08-18T22:03:50.212Z,52.50
2018-08-18T22:06:16.276Z,52.78
2018-08-18T22:08:42.296Z,52.90
2018-08-18T22:11:08.289Z,51.89
2018-08-18T22:13:34.290Z,51.93
2018-08-18T22:16:00.316Z,51.24
2018-08-18T22:18:26.250Z,52.15
2018-08-18T22:20:52.231Z,51.99
2018-08-18T22:23:18.216Z,51.43
2018-08-18T22:25:44.197Z,51.68
2018-08-18T22:28:10.204Z,51.90
2018-08-18T22:30:36.458Z,52.75
2018-08-18T22:33:02.749Z,52.82
2018-08-18T22:35:28.788Z,52.56
2018-08-18T22:37:54.804Z,52.18
2018-08-18T22:40:20.819Z,52.74
2018-08-18T22:42:47.061Z,53.42
2018-08-18T22:45:13.124Z,53.37
2018-08-18T22:47:39.120Z,53.49
2018-08-18T22:50:05.083Z,52.99
2018-08-18T22:52:31.062Z,52.51
2018-08-18T22:54:57.057Z,52.69
2018-08-18T22:57:23.148Z,52.71
2018-08-18T22:59:49.154Z,53.80
2018-08-18T23:02:15.154Z,53.41
2018-08-18T23:04:41.116Z,52.55
2018-08-18T23:07:07.150Z,52.76
2018-08-18T23:09:33.269Z,52.87
2018-08-18T23:11:59.237Z,53.78
2018-08-18T23:14:25.205Z,53.59
2018-08-18T23:16:51.231Z,53.42
2018-08-18T23:19:17.511Z,53.78
2018-08-18T23:21:43.494Z,53.82
2018-08-18T23:24:09.474Z,54.22
2018-08-18T23:26:35.461Z,53.22
2018-08-18T23:29:01.436Z,53.04
2018-08-18T23:31:27.446Z,53.85
2018-08-18T23:33:53.528Z,53.18
2018-08-18T23:36:19.612Z,53.07
2018-08-18T23:38:45.615Z,53.79
2018-08-18T23:41:11.606Z,53.89
2018-08-18T23:43:37.578Z,53.47
2018-08-18T23:46:03.547Z,53.42
2018-08-18T23:48:29.575Z,53.32
2018-08-18T23:50:55.587Z,53.06
2018-08-18T23:53:21.552Z,53.93
2018-08-18T23:55:47.551Z,53.09
2018-08-18T23:58:13.536Z,53.69
